sensor_id;sensor_type;location;lat;lon;timestamp;pressure;altitude;pressure_sealevel;temperature;humidity
39267;BME280;24967;51.154;13.812;2022-08-01T00:00:09;99250.25;;;24.57;54.00
39267;BME280;24967;51.154;13.812;2022-08-01T00:02:37;99244.47;;;24.54;54.14
39267;BME280;24967;51.154;13.812;2022-08-01T00:05:04;99242.03;;;24.52;54.46
39267;BME280;24967;51.154;13.812;2022-08-01T00:07:31;99239.22;;;24.47;54.48
39267;BME280;24967;51.154;13.812;2022-08-01T00:09:58;99241.13;;;24.47;54.39
39267;BME280;24967;51.154;13.812;2022-08-01T00:12:24;99240.88;;;24.48;54.64
39267;BME280;24967;51.154;13.812;2022-08-01T00:14:51;99234.03;;;24.45;54.71
39267;BME280;24967;51.154;13.812;2022-08-01T00:17:17;99230.50;;;24.45;54.37
39267;BME280;24967;51.154;13.812;2022-08-01T00:19:45;99230.13;;;24.41;54.85
39267;BME280;24967;51.154;13.812;2022-08-01T00:22:11;99228.75;;;24.39;54.58
39267;BME280;24967;51.154;13.812;2022-08-01T00:24:38;99226.78;;;24.34;54.95
39267;BME280;24967;51.154;13.812;2022-08-01T00:27:04;99227.44;;;24.25;55.17
39267;BME280;24967;51.154;13.812;2022-08-01T00:29:31;99228.09;;;24.15;56.35
39267;BME280;24967;51.154;13.812;2022-08-01T00:31:57;99225.03;;;24.11;56.39
39267;BME280;24967;51.154;13.812;2022-08-01T00:34:24;99223.66;;;24.09;56.32
39267;BME280;24967;51.154;13.812;2022-08-01T00:36:51;99230.06;;;24.03;56.16
39267;BME280;24967;51.154;13.812;2022-08-01T00:39:18;99225.63;;;23.96;56.28
39267;BME280;24967;51.154;13.812;2022-08-01T00:41:44;99224.78;;;23.96;56.08
39267;BME280;24967;51.154;13.812;2022-08-01T00:44:11;99226.59;;;23.90;56.26
39267;BME280;24967;51.154;13.812;2022-08-01T00:46:37;99227.34;;;23.86;56.21
39267;BME280;24967;51.154;13.812;2022-08-01T00:49:04;99219.91;;;23.81;56.28
39267;BME280;24967;51.154;13.812;2022-08-01T00:51:31;99226.91;;;23.77;56.23
39267;BME280;24967;51.154;13.812;2022-08-01T00:54:00;99226.25;;;23.70;56.23
39267;BME280;24967;51.154;13.812;2022-08-01T00:56:27;99232.13;;;23.67;56.46
39267;BME280;24967;51.154;13.812;2022-08-01T00:58:54;99236.38;;;23.63;56.67
39267;BME280;24967;51.154;13.812;2022-08-01T01:01:22;99233.81;;;23.56;56.36
39267;BME280;24967;51.154;13.812;2022-08-01T01:03:49;99224.19;;;23.48;56.53
39267;BME280;24967;51.154;13.812;2022-08-01T01:06:25;99230.09;;;23.45;56.52
39267;BME280;24967;51.154;13.812;2022-08-01T01:08:58;99222.34;;;23.37;57.06
39267;BME280;24967;51.154;13.812;2022-08-01T01:11:32;99219.78;;;23.30;57.15
39267;BME280;24967;51.154;13.812;2022-08-01T01:14:04;99222.63;;;23.24;57.17
39267;BME280;24967;51.154;13.812;2022-08-01T01:16:33;99222.75;;;23.17;56.97
39267;BME280;24967;51.154;13.812;2022-08-01T01:19:01;99222.66;;;23.12;57.04
39267;BME280;24967;51.154;13.812;2022-08-01T01:21:44;99221.47;;;23.08;57.56
39267;BME280;24967;51.154;13.812;2022-08-01T01:24:21;99227.53;;;22.98;57.53
39267;BME280;24967;51.154;13.812;2022-08-01T01:26:57;99221.13;;;22.93;57.78
39267;BME280;24967;51.154;13.812;2022-08-01T01:29:32;99220.69;;;22.84;57.92
39267;BME280;24967;51.154;13.812;2022-08-01T01:32:05;99227.31;;;22.76;57.91
39267;BME280;24967;51.154;13.812;2022-08-01T01:34:33;99228.47;;;22.69;58.01
39267;BME280;24967;51.154;13.812;2022-08-01T01:37:02;99224.47;;;22.59;58.56
39267;BME280;24967;51.154;13.812;2022-08-01T01:39:32;99228.47;;;22.57;58.48
39267;BME280;24967;51.154;13.812;2022-08-01T01:41:59;99219.44;;;22.51;58.59
39267;BME280;24967;51.154;13.812;2022-08-01T01:44:28;99220.72;;;22.49;59.09
39267;BME280;24967;51.154;13.812;2022-08-01T01:46:57;99215.19;;;22.44;59.63
39267;BME280;24967;51.154;13.812;2022-08-01T01:49:27;99219.66;;;22.38;60.17
39267;BME280;24967;51.154;13.812;2022-08-01T01:51:56;99217.69;;;22.45;59.47
39267;BME280;24967;51.154;13.812;2022-08-01T01:54:28;99222.63;;;22.48;59.46
39267;BME280;24967;51.154;13.812;2022-08-01T01:56:56;99216.00;;;22.56;59.22
39267;BME280;24967;51.154;13.812;2022-08-01T01:59:25;99218.03;;;22.60;59.10
39267;BME280;24967;51.154;13.812;2022-08-01T02:01:56;99214.59;;;22.65;58.81
39267;BME280;24967;51.154;13.812;2022-08-01T02:04:25;99216.22;;;22.66;59.05
39267;BME280;24967;51.154;13.812;2022-08-01T02:06:53;99214.09;;;22.68;58.92
39267;BME280;24967;51.154;13.812;2022-08-01T02:09:21;99213.88;;;22.70;58.98
39267;BME280;24967;51.154;13.812;2022-08-01T02:11:48;99217.41;;;22.70;59.45
39267;BME280;24967;51.154;13.812;2022-08-01T02:14:18;99222.34;;;22.73;59.16
39267;BME280;24967;51.154;13.812;2022-08-01T02:16:47;99216.94;;;22.73;59.06
39267;BME280;24967;51.154;13.812;2022-08-01T02:19:17;99212.69;;;22.77;58.93
39267;BME280;24967;51.154;13.812;2022-08-01T02:21:47;99220.34;;;22.80;59.00
39267;BME280;24967;51.154;13.812;2022-08-01T02:24:17;99217.41;;;22.82;58.83
39267;BME280;24967;51.154;13.812;2022-08-01T02:26:47;99222.56;;;22.83;59.26
39267;BME280;24967;51.154;13.812;2022-08-01T02:29:17;99218.81;;;22.84;59.15
39267;BME280;24967;51.154;13.812;2022-08-01T02:31:46;99227.50;;;22.86;58.88
39267;BME280;24967;51.154;13.812;2022-08-01T02:34:18;99222.91;;;22.87;58.98
39267;BME280;24967;51.154;13.812;2022-08-01T02:36:46;99231.41;;;22.91;58.86
39267;BME280;24967;51.154;13.812;2022-08-01T02:39:16;99233.66;;;22.94;58.66
39267;BME280;24967;51.154;13.812;2022-08-01T02:41:47;99225.28;;;22.95;58.98
39267;BME280;24967;51.154;13.812;2022-08-01T02:44:18;99217.97;;;22.84;59.57
39267;BME280;24967;51.154;13.812;2022-08-01T02:46:52;99218.59;;;22.62;60.50
39267;BME280;24967;51.154;13.812;2022-08-01T02:49:23;99221.28;;;22.62;60.57
39267;BME280;24967;51.154;13.812;2022-08-01T02:51:52;99221.16;;;22.69;60.08
39267;BME280;24967;51.154;13.812;2022-08-01T02:54:21;99216.13;;;22.73;59.72
39267;BME280;24967;51.154;13.812;2022-08-01T02:56:50;99215.38;;;22.77;59.59
39267;BME280;24967;51.154;13.812;2022-08-01T02:59:19;99211.97;;;22.82;59.44
39267;BME280;24967;51.154;13.812;2022-08-01T03:01:47;99213.75;;;22.88;59.52
39267;BME280;24967;51.154;13.812;2022-08-01T03:04:14;99222.69;;;22.89;59.42
39267;BME280;24967;51.154;13.812;2022-08-01T03:06:44;99217.81;;;23.14;59.30
39267;BME280;24967;51.154;13.812;2022-08-01T03:09:12;99222.91;;;23.11;59.30
39267;BME280;24967;51.154;13.812;2022-08-01T03:11:41;99221.03;;;22.99;58.62
39267;BME280;24967;51.154;13.812;2022-08-01T03:14:09;99235.78;;;22.80;59.00
39267;BME280;24967;51.154;13.812;2022-08-01T03:16:38;99233.53;;;22.77;58.80
39267;BME280;24967;51.154;13.812;2022-08-01T03:19:05;99227.31;;;22.76;58.91
39267;BME280;24967;51.154;13.812;2022-08-01T03:21:34;99223.53;;;22.66;59.17
39267;BME280;24967;51.154;13.812;2022-08-01T03:24:05;99230.34;;;22.80;58.86
39267;BME280;24967;51.154;13.812;2022-08-01T03:26:34;99238.16;;;22.64;59.61
39267;BME280;24967;51.154;13.812;2022-08-01T03:29:04;99230.00;;;22.76;59.28
39267;BME280;24967;51.154;13.812;2022-08-01T03:31:34;99234.63;;;22.64;59.84
39267;BME280;24967;51.154;13.812;2022-08-01T03:34:01;99232.25;;;22.56;60.50
39267;BME280;24967;51.154;13.812;2022-08-01T03:36:28;99231.31;;;22.74;59.62
39267;BME280;24967;51.154;13.812;2022-08-01T03:38:59;99237.31;;;22.76;59.77
39267;BME280;24967;51.154;13.812;2022-08-01T03:41:31;99241.06;;;22.75;59.73
39267;BME280;24967;51.154;13.812;2022-08-01T03:44:02;99237.91;;;22.66;60.21
39267;BME280;24967;51.154;13.812;2022-08-01T03:46:42;99238.28;;;22.70;59.87
39267;BME280;24967;51.154;13.812;2022-08-01T03:49:11;99239.44;;;22.74;59.46
39267;BME280;24967;51.154;13.812;2022-08-01T03:51:40;99238.00;;;22.83;59.28
39267;BME280;24967;51.154;13.812;2022-08-01T03:54:08;99243.91;;;22.80;59.93
39267;BME280;24967;51.154;13.812;2022-08-01T03:56:38;99249.91;;;22.82;60.14
39267;BME280;24967;51.154;13.812;2022-08-01T03:59:06;99252.50;;;22.77;60.73
39267;BME280;24967;51.154;13.812;2022-08-01T04:01:33;99244.03;;;22.73;60.48
39267;BME280;24967;51.154;13.812;2022-08-01T04:04:00;99242.75;;;22.76;60.91
39267;BME280;24967;51.154;13.812;2022-08-01T04:06:26;99241.19;;;22.80;60.44
39267;BME280;24967;51.154;13.812;2022-08-01T04:08:53;99241.06;;;22.86;60.17
39267;BME280;24967;51.154;13.812;2022-08-01T04:11:25;99243.44;;;22.83;60.01
39267;BME280;24967;51.154;13.812;2022-08-01T04:13:54;99247.06;;;22.89;59.90
39267;BME280;24967;51.154;13.812;2022-08-01T04:16:21;99241.88;;;22.87;59.98
39267;BME280;24967;51.154;13.812;2022-08-01T04:18:48;99247.69;;;22.91;59.91
39267;BME280;24967;51.154;13.812;2022-08-01T04:21:17;99249.47;;;22.97;59.83
39267;BME280;24967;51.154;13.812;2022-08-01T04:23:45;99243.31;;;23.01;59.67
39267;BME280;24967;51.154;13.812;2022-08-01T04:26:14;99246.63;;;23.03;59.66
39267;BME280;24967;51.154;13.812;2022-08-01T04:28:42;99248.13;;;23.11;59.33
39267;BME280;24967;51.154;13.812;2022-08-01T04:31:13;99253.41;;;23.18;59.07
39267;BME280;24967;51.154;13.812;2022-08-01T04:33:42;99255.19;;;23.12;59.44
39267;BME280;24967;51.154;13.812;2022-08-01T04:36:12;99252.00;;;23.15;59.48
39267;BME280;24967;51.154;13.812;2022-08-01T04:38:42;99255.44;;;23.11;59.83
39267;BME280;24967;51.154;13.812;2022-08-01T04:41:12;99261.50;;;23.29;59.29
39267;BME280;24967;51.154;13.812;2022-08-01T04:43:40;99265.28;;;23.28;59.14
39267;BME280;24967;51.154;13.812;2022-08-01T04:46:07;99259.22;;;23.09;59.64
39267;BME280;24967;51.154;13.812;2022-08-01T04:48:37;99261.78;;;22.93;59.93
39267;BME280;24967;51.154;13.812;2022-08-01T04:51:04;99262.19;;;22.84;60.19
39267;BME280;24967;51.154;13.812;2022-08-01T04:53:30;99264.16;;;22.89;60.34
39267;BME280;24967;51.154;13.812;2022-08-01T04:55:59;99268.44;;;22.97;59.93
39267;BME280;24967;51.154;13.812;2022-08-01T04:58:26;99270.19;;;22.91;60.97
39267;BME280;24967;51.154;13.812;2022-08-01T05:00:52;99267.81;;;22.83;61.20
39267;BME280;24967;51.154;13.812;2022-08-01T05:03:19;99274.53;;;22.69;61.39
39267;BME280;24967;51.154;13.812;2022-08-01T05:05:46;99270.41;;;22.66;61.66
39267;BME280;24967;51.154;13.812;2022-08-01T05:08:13;99273.00;;;22.61;61.82
39267;BME280;24967;51.154;13.812;2022-08-01T05:10:39;99270.06;;;22.51;62.25
39267;BME280;24967;51.154;13.812;2022-08-01T05:13:06;99272.53;;;22.52;62.80
39267;BME280;24967;51.154;13.812;2022-08-01T05:15:32;99268.66;;;22.36;63.52
39267;BME280;24967;51.154;13.812;2022-08-01T05:17:59;99274.50;;;22.22;64.37
39267;BME280;24967;51.154;13.812;2022-08-01T05:20:25;99277.16;;;22.10;65.63
39267;BME280;24967;51.154;13.812;2022-08-01T05:22:53;99280.19;;;22.02;66.55
39267;BME280;24967;51.154;13.812;2022-08-01T05:25:19;99272.03;;;22.32;65.75
39267;BME280;24967;51.154;13.812;2022-08-01T05:27:46;99279.09;;;22.33;65.97
39267;BME280;24967;51.154;13.812;2022-08-01T05:30:13;99282.69;;;22.03;67.30
39267;BME280;24967;51.154;13.812;2022-08-01T05:32:39;99278.06;;;22.34;66.42
39267;BME280;24967;51.154;13.812;2022-08-01T05:35:07;99282.38;;;22.23;66.86
39267;BME280;24967;51.154;13.812;2022-08-01T05:37:34;99290.78;;;22.33;66.73
39267;BME280;24967;51.154;13.812;2022-08-01T05:40:02;99285.38;;;22.03;67.60
39267;BME280;24967;51.154;13.812;2022-08-01T05:42:29;99284.47;;;22.09;67.87
39267;BME280;24967;51.154;13.812;2022-08-01T05:44:56;99285.88;;;22.12;67.91
39267;BME280;24967;51.154;13.812;2022-08-01T05:47:23;99283.94;;;22.31;67.72
39267;BME280;24967;51.154;13.812;2022-08-01T05:49:50;99291.72;;;22.27;67.69
39267;BME280;24967;51.154;13.812;2022-08-01T05:52:16;99287.13;;;22.39;67.26
39267;BME280;24967;51.154;13.812;2022-08-01T05:54:43;99295.28;;;22.51;66.91
39267;BME280;24967;51.154;13.812;2022-08-01T05:57:10;99291.72;;;22.51;67.27
39267;BME280;24967;51.154;13.812;2022-08-01T05:59:37;99291.72;;;22.51;67.40
39267;BME280;24967;51.154;13.812;2022-08-01T06:02:03;99296.16;;;22.22;68.72
39267;BME280;24967;51.154;13.812;2022-08-01T06:04:30;99302.34;;;22.52;67.82
39267;BME280;24967;51.154;13.812;2022-08-01T06:06:57;99301.50;;;22.75;66.89
39267;BME280;24967;51.154;13.812;2022-08-01T06:09:24;99298.22;;;22.61;67.45
39267;BME280;24967;51.154;13.812;2022-08-01T06:11:50;99307.16;;;22.50;67.70
39267;BME280;24967;51.154;13.812;2022-08-01T06:14:18;99302.81;;;22.61;67.57
39267;BME280;24967;51.154;13.812;2022-08-01T06:16:45;99304.41;;;22.38;68.39
39267;BME280;24967;51.154;13.812;2022-08-01T06:19:11;99312.38;;;22.63;67.83
39267;BME280;24967;51.154;13.812;2022-08-01T06:21:38;99314.31;;;22.45;68.30
39267;BME280;24967;51.154;13.812;2022-08-01T06:24:05;99318.69;;;22.34;69.00
39267;BME280;24967;51.154;13.812;2022-08-01T06:26:31;99324.69;;;22.48;68.52
39267;BME280;24967;51.154;13.812;2022-08-01T06:28:58;99317.75;;;22.52;68.55
39267;BME280;24967;51.154;13.812;2022-08-01T06:31:26;99328.72;;;22.45;68.81
39267;BME280;24967;51.154;13.812;2022-08-01T06:33:53;99313.59;;;22.26;70.04
39267;BME280;24967;51.154;13.812;2022-08-01T06:36:20;99333.81;;;22.23;72.23
39267;BME280;24967;51.154;13.812;2022-08-01T06:38:47;99332.56;;;22.07;75.67
39267;BME280;24967;51.154;13.812;2022-08-01T06:41:14;99343.41;;;22.07;76.65
39267;BME280;24967;51.154;13.812;2022-08-01T06:43:40;99348.47;;;22.04;77.26
39267;BME280;24967;51.154;13.812;2022-08-01T06:46:07;99350.72;;;21.58;79.79
39267;BME280;24967;51.154;13.812;2022-08-01T06:48:35;99344.69;;;21.56;80.56
39267;BME280;24967;51.154;13.812;2022-08-01T06:51:04;99357.22;;;21.69;80.39
39267;BME280;24967;51.154;13.812;2022-08-01T06:53:34;99353.34;;;21.65;80.73
39267;BME280;24967;51.154;13.812;2022-08-01T06:56:01;99344.63;;;21.63;81.39
39267;BME280;24967;51.154;13.812;2022-08-01T06:58:28;99350.31;;;21.73;80.53
39267;BME280;24967;51.154;13.812;2022-08-01T07:00:54;99347.78;;;21.60;81.10
39267;BME280;24967;51.154;13.812;2022-08-01T07:03:21;99347.25;;;21.51;81.67
39267;BME280;24967;51.154;13.812;2022-08-01T07:05:49;99357.47;;;21.67;81.96
39267;BME280;24967;51.154;13.812;2022-08-01T07:08:16;99348.66;;;21.72;82.16
39267;BME280;24967;51.154;13.812;2022-08-01T07:10:42;99355.66;;;21.80;82.32
39267;BME280;24967;51.154;13.812;2022-08-01T07:13:09;99359.91;;;21.87;82.32
39267;BME280;24967;51.154;13.812;2022-08-01T07:15:37;99356.38;;;21.87;82.73
39267;BME280;24967;51.154;13.812;2022-08-01T07:18:57;99357.13;;;21.94;81.54
39267;BME280;24967;51.154;13.812;2022-08-01T07:21:59;99362.59;;;21.87;82.05
39267;BME280;24967;51.154;13.812;2022-08-01T07:24:42;99368.81;;;21.76;83.08
39267;BME280;24967;51.154;13.812;2022-08-01T07:27:08;99366.47;;;21.80;83.44
39267;BME280;24967;51.154;13.812;2022-08-01T07:29:35;99362.19;;;22.02;82.30
39267;BME280;24967;51.154;13.812;2022-08-01T07:32:02;99362.78;;;22.23;81.80
39267;BME280;24967;51.154;13.812;2022-08-01T07:34:28;99358.13;;;22.11;81.47
39267;BME280;24967;51.154;13.812;2022-08-01T07:36:58;99366.13;;;22.06;82.53
39267;BME280;24967;51.154;13.812;2022-08-01T07:39:25;99366.56;;;22.22;82.28
39267;BME280;24967;51.154;13.812;2022-08-01T07:41:51;99361.53;;;22.07;82.81
39267;BME280;24967;51.154;13.812;2022-08-01T07:44:18;99361.03;;;21.98;83.79
39267;BME280;24967;51.154;13.812;2022-08-01T07:46:45;99355.81;;;22.15;82.95
39267;BME280;24967;51.154;13.812;2022-08-01T07:49:11;99359.03;;;22.35;80.48
39267;BME280;24967;51.154;13.812;2022-08-01T07:51:38;99353.09;;;22.45;78.47
39267;BME280;24967;51.154;13.812;2022-08-01T07:54:06;99350.94;;;22.47;78.71
39267;BME280;24967;51.154;13.812;2022-08-01T07:56:33;99356.25;;;22.54;78.44
39267;BME280;24967;51.154;13.812;2022-08-01T07:59:00;99349.03;;;22.36;79.32
39267;BME280;24967;51.154;13.812;2022-08-01T08:01:26;99350.63;;;22.55;79.09
39267;BME280;24967;51.154;13.812;2022-08-01T08:03:53;99352.84;;;22.47;79.24
39267;BME280;24967;51.154;13.812;2022-08-01T08:06:20;99350.38;;;22.69;78.63
39267;BME280;24967;51.154;13.812;2022-08-01T08:08:46;99351.00;;;22.82;77.26
39267;BME280;24967;51.154;13.812;2022-08-01T08:11:15;99357.13;;;22.90;76.80
39267;BME280;24967;51.154;13.812;2022-08-01T08:13:41;99349.72;;;23.20;75.40
39267;BME280;24967;51.154;13.812;2022-08-01T08:16:08;99352.19;;;23.22;74.25
39267;BME280;24967;51.154;13.812;2022-08-01T08:18:35;99363.50;;;23.42;74.27
39267;BME280;24967;51.154;13.812;2022-08-01T08:21:03;99359.84;;;23.48;73.35
39267;BME280;24967;51.154;13.812;2022-08-01T08:23:30;99357.78;;;23.55;71.18
39267;BME280;24967;51.154;13.812;2022-08-01T08:26:15;99364.19;;;23.38;72.55
39267;BME280;24967;51.154;13.812;2022-08-01T08:28:42;99359.50;;;23.33;73.51
39267;BME280;24967;51.154;13.812;2022-08-01T08:31:08;99362.78;;;23.35;73.03
39267;BME280;24967;51.154;13.812;2022-08-01T08:33:35;99363.13;;;23.39;71.84
39267;BME280;24967;51.154;13.812;2022-08-01T08:36:02;99356.34;;;23.65;71.10
39267;BME280;24967;51.154;13.812;2022-08-01T08:38:28;99369.66;;;23.78;71.26
39267;BME280;24967;51.154;13.812;2022-08-01T08:40:55;99352.31;;;23.91;70.07
39267;BME280;24967;51.154;13.812;2022-08-01T08:43:25;99355.63;;;24.10;69.43
39267;BME280;24967;51.154;13.812;2022-08-01T08:45:52;99368.66;;;23.96;69.67
39267;BME280;24967;51.154;13.812;2022-08-01T08:48:20;99368.38;;;23.69;70.66
39267;BME280;24967;51.154;13.812;2022-08-01T08:50:48;99360.66;;;23.89;70.61
39267;BME280;24967;51.154;13.812;2022-08-01T08:53:15;99361.09;;;23.58;71.30
39267;BME280;24967;51.154;13.812;2022-08-01T08:55:42;99363.91;;;23.63;71.11
39267;BME280;24967;51.154;13.812;2022-08-01T08:58:12;99364.72;;;23.75;70.46
39267;BME280;24967;51.154;13.812;2022-08-01T09:00:40;99366.88;;;23.73;70.01
39267;BME280;24967;51.154;13.812;2022-08-01T09:03:07;99361.09;;;23.98;70.05
39267;BME280;24967;51.154;13.812;2022-08-01T09:05:34;99373.03;;;23.97;69.46
39267;BME280;24967;51.154;13.812;2022-08-01T09:08:01;99363.53;;;24.11;68.67
39267;BME280;24967;51.154;13.812;2022-08-01T09:10:27;99361.66;;;24.12;67.87
39267;BME280;24967;51.154;13.812;2022-08-01T09:13:06;99364.88;;;24.54;66.70
39267;BME280;24967;51.154;13.812;2022-08-01T09:15:42;99368.84;;;24.63;66.21
39267;BME280;24967;51.154;13.812;2022-08-01T09:18:25;99376.56;;;24.72;65.93
39267;BME280;24967;51.154;13.812;2022-08-01T09:21:07;99372.28;;;24.59;66.21
39267;BME280;24967;51.154;13.812;2022-08-01T09:23:35;99370.16;;;24.32;67.12
39267;BME280;24967;51.154;13.812;2022-08-01T09:26:05;99374.31;;;24.23;67.39
39267;BME280;24967;51.154;13.812;2022-08-01T09:28:32;99371.19;;;24.43;67.42
39267;BME280;24967;51.154;13.812;2022-08-01T09:31:05;99374.25;;;24.47;67.73
39267;BME280;24967;51.154;13.812;2022-08-01T09:33:50;99373.16;;;24.48;66.89
39267;BME280;24967;51.154;13.812;2022-08-01T09:36:17;99362.91;;;24.66;66.65
39267;BME280;24967;51.154;13.812;2022-08-01T09:38:44;99360.50;;;24.70;64.83
39267;BME280;24967;51.154;13.812;2022-08-01T09:41:11;99369.38;;;24.99;63.74
39267;BME280;24967;51.154;13.812;2022-08-01T09:43:37;99367.00;;;25.03;63.61
39267;BME280;24967;51.154;13.812;2022-08-01T09:46:10;99367.75;;;24.81;64.31
39267;BME280;24967;51.154;13.812;2022-08-01T09:48:37;99377.53;;;24.99;63.48
39267;BME280;24967;51.154;13.812;2022-08-01T09:51:05;99372.03;;;24.77;64.06
39267;BME280;24967;51.154;13.812;2022-08-01T09:53:45;99374.41;;;25.07;63.69
39267;BME280;24967;51.154;13.812;2022-08-01T09:56:12;99368.53;;;24.99;64.33
39267;BME280;24967;51.154;13.812;2022-08-01T09:58:52;99354.06;;;24.93;64.08
39267;BME280;24967;51.154;13.812;2022-08-01T10:01:21;99352.88;;;25.23;64.28
39267;BME280;24967;51.154;13.812;2022-08-01T10:04:04;99362.03;;;25.55;62.72
39267;BME280;24967;51.154;13.812;2022-08-01T10:06:31;99363.09;;;25.54;61.42
39267;BME280;24967;51.154;13.812;2022-08-01T10:08:58;99359.88;;;25.79;59.50
39267;BME280;24967;51.154;13.812;2022-08-01T10:11:25;99362.00;;;25.77;58.80
39267;BME280;24967;51.154;13.812;2022-08-01T10:13:52;99369.50;;;25.65;59.59
39267;BME280;24967;51.154;13.812;2022-08-01T10:16:21;99369.25;;;25.45;60.68
39267;BME280;24967;51.154;13.812;2022-08-01T10:18:48;99366.56;;;25.50;60.77
39267;BME280;24967;51.154;13.812;2022-08-01T10:21:16;99360.19;;;25.61;60.97
39267;BME280;24967;51.154;13.812;2022-08-01T10:23:43;99362.28;;;25.76;59.04
39267;BME280;24967;51.154;13.812;2022-08-01T10:26:12;99362.72;;;25.90;58.38
39267;BME280;24967;51.154;13.812;2022-08-01T10:28:39;99358.16;;;25.95;58.86
39267;BME280;24967;51.154;13.812;2022-08-01T10:31:07;99365.28;;;26.23;58.63
39267;BME280;24967;51.154;13.812;2022-08-01T10:34:03;99366.50;;;26.11;58.42
39267;BME280;24967;51.154;13.812;2022-08-01T10:36:49;99371.78;;;26.22;57.51
39267;BME280;24967;51.154;13.812;2022-08-01T10:39:17;99368.03;;;25.79;58.90
39267;BME280;24967;51.154;13.812;2022-08-01T10:41:45;99360.63;;;25.75;59.32
39267;BME280;24967;51.154;13.812;2022-08-01T10:44:12;99366.59;;;25.94;59.17
39267;BME280;24967;51.154;13.812;2022-08-01T10:46:41;99370.72;;;25.96;59.45
39267;BME280;24967;51.154;13.812;2022-08-01T10:49:11;99369.69;;;26.02;58.49
39267;BME280;24967;51.154;13.812;2022-08-01T10:51:39;99372.81;;;26.16;57.86
39267;BME280;24967;51.154;13.812;2022-08-01T10:54:31;99371.38;;;25.81;57.95
39267;BME280;24967;51.154;13.812;2022-08-01T10:57:28;99369.13;;;25.78;57.99
39267;BME280;24967;51.154;13.812;2022-08-01T11:00:40;99359.78;;;25.74;58.45
39267;BME280;24967;51.154;13.812;2022-08-01T11:06:53;99367.88;;;26.13;58.23
39267;BME280;24967;51.154;13.812;2022-08-01T11:09:41;99379.28;;;26.64;57.01
39267;BME280;24967;51.154;13.812;2022-08-01T11:12:37;99371.16;;;26.69;56.32
39267;BME280;24967;51.154;13.812;2022-08-01T11:15:34;99377.81;;;26.24;57.46
39267;BME280;24967;51.154;13.812;2022-08-01T11:18:30;99376.06;;;26.13;58.38
39267;BME280;24967;51.154;13.812;2022-08-01T11:20:59;99375.44;;;26.06;58.52
39267;BME280;24967;51.154;13.812;2022-08-01T11:23:28;99374.56;;;26.00;57.80
39267;BME280;24967;51.154;13.812;2022-08-01T11:26:13;99377.13;;;25.85;58.55
39267;BME280;24967;51.154;13.812;2022-08-01T11:32:33;99385.16;;;25.97;59.95
39267;BME280;24967;51.154;13.812;2022-08-01T11:35:28;99387.38;;;26.00;61.21
39267;BME280;24967;51.154;13.812;2022-08-01T11:37:55;99388.06;;;26.44;61.44
39267;BME280;24967;51.154;13.812;2022-08-01T11:40:25;99379.28;;;26.64;60.08
39267;BME280;24967;51.154;13.812;2022-08-01T11:43:16;99383.13;;;26.68;58.73
39267;BME280;24967;51.154;13.812;2022-08-01T11:45:47;99380.44;;;27.11;58.14
39267;BME280;24967;51.154;13.812;2022-08-01T11:48:18;99393.41;;;27.26;55.05
39267;BME280;24967;51.154;13.812;2022-08-01T11:50:44;99390.19;;;27.34;55.14
39267;BME280;24967;51.154;13.812;2022-08-01T11:53:12;99399.78;;;27.04;56.06
39267;BME280;24967;51.154;13.812;2022-08-01T11:55:45;99388.00;;;26.93;56.99
39267;BME280;24967;51.154;13.812;2022-08-01T11:58:14;99386.66;;;26.96;56.04
39267;BME280;24967;51.154;13.812;2022-08-01T12:00:41;99394.44;;;26.82;55.85
39267;BME280;24967;51.154;13.812;2022-08-01T12:03:08;99391.25;;;26.58;56.52
39267;BME280;24967;51.154;13.812;2022-08-01T12:05:35;99387.47;;;27.02;55.54
39267;BME280;24967;51.154;13.812;2022-08-01T12:08:03;99392.94;;;27.39;55.03
39267;BME280;24967;51.154;13.812;2022-08-01T12:10:34;99392.22;;;27.59;54.45
39267;BME280;24967;51.154;13.812;2022-08-01T12:13:05;99388.34;;;27.45;53.63
39267;BME280;24967;51.154;13.812;2022-08-01T12:15:34;99384.38;;;27.73;53.62
39267;BME280;24967;51.154;13.812;2022-08-01T12:18:18;99387.38;;;27.76;52.99
39267;BME280;24967;51.154;13.812;2022-08-01T12:20:46;99382.88;;;28.13;53.42
39267;BME280;24967;51.154;13.812;2022-08-01T12:23:14;99387.25;;;28.19;51.97
39267;BME280;24967;51.154;13.812;2022-08-01T12:25:42;99390.53;;;28.26;51.90
39267;BME280;24967;51.154;13.812;2022-08-01T12:28:11;99382.09;;;28.38;50.39
39267;BME280;24967;51.154;13.812;2022-08-01T12:30:40;99383.75;;;28.34;49.76
39267;BME280;24967;51.154;13.812;2022-08-01T12:33:31;99396.25;;;28.09;49.95
39267;BME280;24967;51.154;13.812;2022-08-01T12:36:09;99387.84;;;27.58;51.70
39267;BME280;24967;51.154;13.812;2022-08-01T12:38:36;99387.75;;;27.95;51.52
39267;BME280;24967;51.154;13.812;2022-08-01T12:41:03;99381.75;;;27.98;50.16
39267;BME280;24967;51.154;13.812;2022-08-01T12:43:32;99379.28;;;27.92;50.97
39267;BME280;24967;51.154;13.812;2022-08-01T12:46:00;99377.19;;;27.56;50.55
39267;BME280;24967;51.154;13.812;2022-08-01T12:48:27;99383.09;;;27.33;51.41
39267;BME280;24967;51.154;13.812;2022-08-01T12:54:17;99376.78;;;27.27;51.42
39267;BME280;24967;51.154;13.812;2022-08-01T12:56:44;99380.88;;;26.92;51.96
39267;BME280;24967;51.154;13.812;2022-08-01T12:59:34;99380.00;;;26.87;52.21
39267;BME280;24967;51.154;13.812;2022-08-01T13:02:09;99382.06;;;26.69;52.15
39267;BME280;24967;51.154;13.812;2022-08-01T13:08:29;99373.38;;;26.72;52.41
39267;BME280;24967;51.154;13.812;2022-08-01T13:17:33;99394.00;;;27.38;51.69
39267;BME280;24967;51.154;13.812;2022-08-01T13:20:29;99388.84;;;27.36;51.95
39267;BME280;24967;51.154;13.812;2022-08-01T13:23:38;99388.41;;;27.60;51.07
39267;BME280;24967;51.154;13.812;2022-08-01T13:33:46;99393.84;;;28.28;50.12